sensor_id;sensor_type;location;lat;lon;timestamp;P1;durP1;ratioP1;P2;durP2;ratioP2
27893;SDS011;15240;50.812;4.792;2024-02-21T00:00:51;34.70;;;16.17;;
27893;SDS011;15240;50.812;4.792;2024-02-21T00:03:17;35.83;;;16.40;;
27893;SDS011;15240;50.812;4.792;2024-02-21T00:05:44;32.33;;;15.93;;
27893;SDS011;15240;50.812;4.792;2024-02-21T00:08:10;38.13;;;16.47;;
27893;SDS011;15240;50.812;4.792;2024-02-21T00:10:36;30.07;;;15.07;;
27893;SDS011;15240;50.812;4.792;2024-02-21T00:13:02;37.43;;;17.03;;
27893;SDS011;15240;50.812;4.792;2024-02-21T00:15:28;35.40;;;16.00;;
27893;SDS011;15240;50.812;4.792;2024-02-21T00:17:55;34.73;;;15.20;;
27893;SDS011;15240;50.812;4.792;2024-02-21T00:20:21;35.37;;;15.70;;
27893;SDS011;15240;50.812;4.792;2024-02-21T00:22:47;37.40;;;15.60;;
27893;SDS011;15240;50.812;4.792;2024-02-21T00:25:14;36.67;;;16.50;;
27893;SDS011;15240;50.812;4.792;2024-02-21T00:27:40;35.50;;;15.30;;
27893;SDS011;15240;50.812;4.792;2024-02-21T00:30:06;31.33;;;15.70;;
27893;SDS011;15240;50.812;4.792;2024-02-21T00:32:32;33.27;;;15.30;;
27893;SDS011;15240;50.812;4.792;2024-02-21T00:34:59;34.13;;;15.17;;
27893;SDS011;15240;50.812;4.792;2024-02-21T00:37:26;30.27;;;14.67;;
27893;SDS011;15240;50.812;4.792;2024-02-21T00:39:56;36.27;;;15.03;;
27893;SDS011;15240;50.812;4.792;2024-02-21T00:42:22;29.50;;;14.40;;
27893;SDS011;15240;50.812;4.792;2024-02-21T00:44:48;31.33;;;14.07;;
27893;SDS011;15240;50.812;4.792;2024-02-21T00:47:14;32.83;;;14.30;;
27893;SDS011;15240;50.812;4.792;2024-02-21T00:49:40;34.40;;;14.00;;
27893;SDS011;15240;50.812;4.792;2024-02-21T00:52:06;31.47;;;14.20;;
27893;SDS011;15240;50.812;4.792;2024-02-21T00:54:32;28.23;;;13.30;;
27893;SDS011;15240;50.812;4.792;2024-02-21T00:56:58;27.10;;;12.77;;
27893;SDS011;15240;50.812;4.792;2024-02-21T00:59:24;30.40;;;14.03;;
27893;SDS011;15240;50.812;4.792;2024-02-21T01:01:50;28.50;;;12.90;;
27893;SDS011;15240;50.812;4.792;2024-02-21T01:04:16;26.30;;;12.47;;
27893;SDS011;15240;50.812;4.792;2024-02-21T01:06:42;27.83;;;13.37;;
27893;SDS011;15240;50.812;4.792;2024-02-21T01:09:09;27.80;;;13.07;;
27893;SDS011;15240;50.812;4.792;2024-02-21T01:11:36;29.23;;;14.13;;
27893;SDS011;15240;50.812;4.792;2024-02-21T01:14:03;30.90;;;13.73;;
27893;SDS011;15240;50.812;4.792;2024-02-21T01:16:29;27.80;;;12.20;;
27893;SDS011;15240;50.812;4.792;2024-02-21T01:18:55;27.80;;;12.97;;
27893;SDS011;15240;50.812;4.792;2024-02-21T01:21:22;28.50;;;13.90;;
27893;SDS011;15240;50.812;4.792;2024-02-21T01:23:48;35.13;;;13.80;;
27893;SDS011;15240;50.812;4.792;2024-02-21T01:26:14;29.83;;;13.00;;
27893;SDS011;15240;50.812;4.792;2024-02-21T01:28:40;31.07;;;14.23;;
27893;SDS011;15240;50.812;4.792;2024-02-21T01:31:07;34.00;;;13.97;;
27893;SDS011;15240;50.812;4.792;2024-02-21T01:33:33;33.10;;;13.87;;
27893;SDS011;15240;50.812;4.792;2024-02-21T01:36:03;29.37;;;14.30;;
27893;SDS011;15240;50.812;4.792;2024-02-21T01:38:33;33.07;;;14.23;;
27893;SDS011;15240;50.812;4.792;2024-02-21T01:40:59;33.77;;;14.43;;
27893;SDS011;15240;50.812;4.792;2024-02-21T01:43:25;32.17;;;14.40;;
27893;SDS011;15240;50.812;4.792;2024-02-21T01:45:57;28.40;;;13.10;;
27893;SDS011;15240;50.812;4.792;2024-02-21T01:48:23;30.50;;;14.60;;
27893;SDS011;15240;50.812;4.792;2024-02-21T01:50:50;32.73;;;13.93;;
27893;SDS011;15240;50.812;4.792;2024-02-21T01:53:18;30.33;;;13.77;;
27893;SDS011;15240;50.812;4.792;2024-02-21T01:55:45;33.40;;;14.73;;
27893;SDS011;15240;50.812;4.792;2024-02-21T01:58:13;31.77;;;14.67;;
27893;SDS011;15240;50.812;4.792;2024-02-21T02:00:40;28.07;;;14.17;;
27893;SDS011;15240;50.812;4.792;2024-02-21T02:03:06;31.83;;;13.67;;
27893;SDS011;15240;50.812;4.792;2024-02-21T02:05:32;34.53;;;14.40;;
27893;SDS011;15240;50.812;4.792;2024-02-21T02:07:59;31.13;;;14.60;;
27893;SDS011;15240;50.812;4.792;2024-02-21T02:10:25;33.03;;;13.27;;
27893;SDS011;15240;50.812;4.792;2024-02-21T02:12:51;30.90;;;14.20;;
27893;SDS011;15240;50.812;4.792;2024-02-21T02:15:18;27.40;;;12.60;;
27893;SDS011;15240;50.812;4.792;2024-02-21T02:17:44;29.43;;;13.10;;
27893;SDS011;15240;50.812;4.792;2024-02-21T02:20:10;27.10;;;12.90;;
27893;SDS011;15240;50.812;4.792;2024-02-21T02:22:36;31.17;;;12.97;;
27893;SDS011;15240;50.812;4.792;2024-02-21T02:25:03;25.37;;;12.73;;
27893;SDS011;15240;50.812;4.792;2024-02-21T02:27:29;26.80;;;12.60;;
27893;SDS011;15240;50.812;4.792;2024-02-21T02:29:56;29.90;;;13.30;;
27893;SDS011;15240;50.812;4.792;2024-02-21T02:32:22;32.13;;;14.50;;
27893;SDS011;15240;50.812;4.792;2024-02-21T02:34:48;33.63;;;14.00;;
27893;SDS011;15240;50.812;4.792;2024-02-21T02:37:14;28.20;;;13.53;;
27893;SDS011;15240;50.812;4.792;2024-02-21T02:39:40;27.70;;;12.60;;
27893;SDS011;15240;50.812;4.792;2024-02-21T02:42:06;26.93;;;13.90;;
27893;SDS011;15240;50.812;4.792;2024-02-21T02:44:33;26.20;;;13.27;;
27893;SDS011;15240;50.812;4.792;2024-02-21T02:46:59;28.47;;;12.77;;
27893;SDS011;15240;50.812;4.792;2024-02-21T02:49:25;29.87;;;12.73;;
27893;SDS011;15240;50.812;4.792;2024-02-21T02:51:51;33.47;;;12.87;;
27893;SDS011;15240;50.812;4.792;2024-02-21T02:54:17;28.43;;;13.23;;
27893;SDS011;15240;50.812;4.792;2024-02-21T02:56:43;29.73;;;13.17;;
27893;SDS011;15240;50.812;4.792;2024-02-21T02:59:09;30.87;;;13.40;;
27893;SDS011;15240;50.812;4.792;2024-02-21T03:01:35;25.37;;;12.70;;
27893;SDS011;15240;50.812;4.792;2024-02-21T03:04:03;30.13;;;13.10;;
27893;SDS011;15240;50.812;4.792;2024-02-21T03:06:29;32.70;;;12.97;;
27893;SDS011;15240;50.812;4.792;2024-02-21T03:08:55;30.77;;;14.75;;
27893;SDS011;15240;50.812;4.792;2024-02-21T03:11:21;26.33;;;12.93;;
27893;SDS011;15240;50.812;4.792;2024-02-21T03:13:53;28.37;;;12.43;;
27893;SDS011;15240;50.812;4.792;2024-02-21T03:16:20;24.93;;;12.00;;
27893;SDS011;15240;50.812;4.792;2024-02-21T03:18:47;31.97;;;13.37;;
27893;SDS011;15240;50.812;4.792;2024-02-21T03:21:13;32.70;;;15.07;;
27893;SDS011;15240;50.812;4.792;2024-02-21T03:23:39;29.25;;;15.05;;
27893;SDS011;15240;50.812;4.792;2024-02-21T03:26:05;29.13;;;12.93;;
27893;SDS011;15240;50.812;4.792;2024-02-21T03:28:32;29.88;;;14.30;;
27893;SDS011;15240;50.812;4.792;2024-02-21T03:30:58;27.10;;;12.53;;
27893;SDS011;15240;50.812;4.792;2024-02-21T03:33:24;26.50;;;14.23;;
27893;SDS011;15240;50.812;4.792;2024-02-21T03:35:50;30.70;;;13.30;;
27893;SDS011;15240;50.812;4.792;2024-02-21T03:38:16;28.50;;;12.97;;
27893;SDS011;15240;50.812;4.792;2024-02-21T03:40:42;23.33;;;11.80;;
27893;SDS011;15240;50.812;4.792;2024-02-21T03:43:08;28.53;;;12.37;;
27893;SDS011;15240;50.812;4.792;2024-02-21T03:45:34;28.50;;;12.53;;
27893;SDS011;15240;50.812;4.792;2024-02-21T03:48:00;25.70;;;12.90;;
27893;SDS011;15240;50.812;4.792;2024-02-21T03:50:27;25.60;;;13.03;;
27893;SDS011;15240;50.812;4.792;2024-02-21T03:52:55;29.87;;;12.73;;
27893;SDS011;15240;50.812;4.792;2024-02-21T03:55:21;24.97;;;12.80;;
27893;SDS011;15240;50.812;4.792;2024-02-21T03:57:47;27.43;;;12.93;;
27893;SDS011;15240;50.812;4.792;2024-02-21T04:00:14;29.67;;;12.93;;
27893;SDS011;15240;50.812;4.792;2024-02-21T04:02:40;30.27;;;12.90;;
27893;SDS011;15240;50.812;4.792;2024-02-21T04:05:06;30.57;;;13.43;;
27893;SDS011;15240;50.812;4.792;2024-02-21T04:07:36;28.63;;;13.30;;
27893;SDS011;15240;50.812;4.792;2024-02-21T04:10:02;32.73;;;14.17;;
27893;SDS011;15240;50.812;4.792;2024-02-21T04:12:28;27.57;;;13.17;;
27893;SDS011;15240;50.812;4.792;2024-02-21T04:14:54;29.17;;;13.17;;
27893;SDS011;15240;50.812;4.792;2024-02-21T04:17:20;32.37;;;13.97;;
27893;SDS011;15240;50.812;4.792;2024-02-21T04:19:46;28.23;;;15.65;;
27893;SDS011;15240;50.812;4.792;2024-02-21T04:22:12;31.40;;;14.40;;
27893;SDS011;15240;50.812;4.792;2024-02-21T04:24:38;31.10;;;13.73;;
27893;SDS011;15240;50.812;4.792;2024-02-21T04:27:04;29.03;;;13.67;;
27893;SDS011;15240;50.812;4.792;2024-02-21T04:29:30;28.63;;;13.77;;
27893;SDS011;15240;50.812;4.792;2024-02-21T04:31:58;32.27;;;16.40;;
27893;SDS011;15240;50.812;4.792;2024-02-21T04:34:24;29.27;;;14.40;;
27893;SDS011;15240;50.812;4.792;2024-02-21T04:36:50;30.53;;;14.47;;
27893;SDS011;15240;50.812;4.792;2024-02-21T04:39:16;26.33;;;13.80;;
27893;SDS011;15240;50.812;4.792;2024-02-21T04:41:43;25.70;;;13.87;;
27893;SDS011;15240;50.812;4.792;2024-02-21T04:44:09;27.87;;;14.37;;
27893;SDS011;15240;50.812;4.792;2024-02-21T04:46:35;30.97;;;13.30;;
27893;SDS011;15240;50.812;4.792;2024-02-21T04:49:01;25.43;;;13.80;;
27893;SDS011;15240;50.812;4.792;2024-02-21T04:51:27;26.03;;;13.40;;
27893;SDS011;15240;50.812;4.792;2024-02-21T04:53:53;26.50;;;13.97;;
27893;SDS011;15240;50.812;4.792;2024-02-21T04:56:19;29.43;;;13.40;;
27893;SDS011;15240;50.812;4.792;2024-02-21T04:58:45;28.13;;;12.43;;
27893;SDS011;15240;50.812;4.792;2024-02-21T05:01:11;25.27;;;12.23;;
27893;SDS011;15240;50.812;4.792;2024-02-21T05:03:38;27.07;;;13.10;;
27893;SDS011;15240;50.812;4.792;2024-02-21T05:06:04;24.38;;;15.02;;
27893;SDS011;15240;50.812;4.792;2024-02-21T05:08:30;26.27;;;13.53;;
27893;SDS011;15240;50.812;4.792;2024-02-21T05:10:56;22.70;;;12.57;;
27893;SDS011;15240;50.812;4.792;2024-02-21T05:13:23;25.03;;;11.90;;
27893;SDS011;15240;50.812;4.792;2024-02-21T05:15:49;22.13;;;12.57;;
27893;SDS011;15240;50.812;4.792;2024-02-21T05:18:15;22.23;;;12.50;;
27893;SDS011;15240;50.812;4.792;2024-02-21T05:20:42;22.53;;;11.77;;
27893;SDS011;15240;50.812;4.792;2024-02-21T05:23:08;24.65;;;13.85;;
27893;SDS011;15240;50.812;4.792;2024-02-21T05:25:34;23.02;;;13.63;;
27893;SDS011;15240;50.812;4.792;2024-02-21T05:28:00;26.65;;;14.85;;
27893;SDS011;15240;50.812;4.792;2024-02-21T05:30:28;24.53;;;13.97;;
27893;SDS011;15240;50.812;4.792;2024-02-21T05:32:54;24.30;;;12.33;;
27893;SDS011;15240;50.812;4.792;2024-02-21T05:35:24;23.52;;;13.88;;
27893;SDS011;15240;50.812;4.792;2024-02-21T05:37:50;22.93;;;12.63;;
27893;SDS011;15240;50.812;4.792;2024-02-21T05:40:17;21.83;;;11.77;;
27893;SDS011;15240;50.812;4.792;2024-02-21T05:42:43;24.38;;;13.07;;
27893;SDS011;15240;50.812;4.792;2024-02-21T05:45:09;21.37;;;11.10;;
27893;SDS011;15240;50.812;4.792;2024-02-21T05:47:36;22.90;;;13.60;;
27893;SDS011;15240;50.812;4.792;2024-02-21T05:50:02;21.63;;;11.87;;
27893;SDS011;15240;50.812;4.792;2024-02-21T05:52:28;22.38;;;12.95;;
27893;SDS011;15240;50.812;4.792;2024-02-21T05:54:54;24.08;;;13.10;;
27893;SDS011;15240;50.812;4.792;2024-02-21T05:57:20;23.77;;;12.10;;
27893;SDS011;15240;50.812;4.792;2024-02-21T05:59:47;22.23;;;11.13;;
27893;SDS011;15240;50.812;4.792;2024-02-21T06:02:13;22.88;;;13.05;;
27893;SDS011;15240;50.812;4.792;2024-02-21T06:04:39;22.25;;;13.90;;
27893;SDS011;15240;50.812;4.792;2024-02-21T06:07:05;23.08;;;13.45;;
27893;SDS011;15240;50.812;4.792;2024-02-21T06:09:31;21.67;;;11.70;;
27893;SDS011;15240;50.812;4.792;2024-02-21T06:11:57;23.02;;;12.77;;
27893;SDS011;15240;50.812;4.792;2024-02-21T06:14:23;23.30;;;12.17;;
27893;SDS011;15240;50.812;4.792;2024-02-21T06:16:49;18.60;;;10.67;;
27893;SDS011;15240;50.812;4.792;2024-02-21T06:19:15;24.87;;;11.57;;
27893;SDS011;15240;50.812;4.792;2024-02-21T06:21:41;22.03;;;10.90;;
27893;SDS011;15240;50.812;4.792;2024-02-21T06:24:07;23.13;;;12.40;;
27893;SDS011;15240;50.812;4.792;2024-02-21T06:26:33;21.90;;;11.77;;
27893;SDS011;15240;50.812;4.792;2024-02-21T06:29:00;23.70;;;11.70;;
27893;SDS011;15240;50.812;4.792;2024-02-21T06:31:27;19.50;;;13.57;;
27893;SDS011;15240;50.812;4.792;2024-02-21T06:33:53;25.05;;;13.75;;
27893;SDS011;15240;50.812;4.792;2024-02-21T06:36:19;22.30;;;13.60;;
27893;SDS011;15240;50.812;4.792;2024-02-21T06:38:47;21.57;;;11.93;;
27893;SDS011;15240;50.812;4.792;2024-02-21T06:41:17;22.77;;;11.83;;
27893;SDS011;15240;50.812;4.792;2024-02-21T06:43:46;23.52;;;13.60;;
27893;SDS011;15240;50.812;4.792;2024-02-21T06:46:21;25.98;;;15.50;;
27893;SDS011;15240;50.812;4.792;2024-02-21T06:48:48;23.65;;;15.10;;
27893;SDS011;15240;50.812;4.792;2024-02-21T06:51:14;28.10;;;16.38;;
27893;SDS011;15240;50.812;4.792;2024-02-21T06:53:41;28.58;;;16.58;;
27893;SDS011;15240;50.812;4.792;2024-02-21T06:56:08;25.07;;;13.37;;
27893;SDS011;15240;50.812;4.792;2024-02-21T06:58:34;25.23;;;13.07;;
27893;SDS011;15240;50.812;4.792;2024-02-21T07:01:01;27.23;;;13.67;;
27893;SDS011;15240;50.812;4.792;2024-02-21T07:03:27;25.63;;;13.67;;
27893;SDS011;15240;50.812;4.792;2024-02-21T07:05:53;25.93;;;12.53;;
27893;SDS011;15240;50.812;4.792;2024-02-21T07:08:19;32.67;;;14.50;;
27893;SDS011;15240;50.812;4.792;2024-02-21T07:10:46;27.80;;;14.07;;
27893;SDS011;15240;50.812;4.792;2024-02-21T07:13:12;27.37;;;14.23;;
27893;SDS011;15240;50.812;4.792;2024-02-21T07:15:40;31.27;;;14.73;;
27893;SDS011;15240;50.812;4.792;2024-02-21T07:18:07;26.20;;;14.00;;
27893;SDS011;15240;50.812;4.792;2024-02-21T07:20:33;32.33;;;15.40;;
27893;SDS011;15240;50.812;4.792;2024-02-21T07:23:01;32.70;;;14.53;;
27893;SDS011;15240;50.812;4.792;2024-02-21T07:25:27;26.03;;;14.43;;
27893;SDS011;15240;50.812;4.792;2024-02-21T07:27:53;28.87;;;15.10;;
27893;SDS011;15240;50.812;4.792;2024-02-21T07:30:20;30.33;;;15.57;;
27893;SDS011;15240;50.812;4.792;2024-02-21T07:32:49;29.27;;;14.67;;
27893;SDS011;15240;50.812;4.792;2024-02-21T07:35:15;35.20;;;15.37;;
27893;SDS011;15240;50.812;4.792;2024-02-21T07:37:41;34.23;;;14.93;;
27893;SDS011;15240;50.812;4.792;2024-02-21T07:40:17;30.47;;;15.80;;
27893;SDS011;15240;50.812;4.792;2024-02-21T07:42:43;30.27;;;15.53;;
27893;SDS011;15240;50.812;4.792;2024-02-21T07:45:09;32.63;;;15.17;;
27893;SDS011;15240;50.812;4.792;2024-02-21T07:47:35;28.70;;;14.97;;
27893;SDS011;15240;50.812;4.792;2024-02-21T07:50:02;29.13;;;13.37;;
27893;SDS011;15240;50.812;4.792;2024-02-21T07:52:29;25.63;;;14.10;;
27893;SDS011;15240;50.812;4.792;2024-02-21T07:54:55;26.27;;;12.57;;
27893;SDS011;15240;50.812;4.792;2024-02-21T07:57:21;26.07;;;13.50;;
27893;SDS011;15240;50.812;4.792;2024-02-21T07:59:47;27.57;;;13.20;;
27893;SDS011;15240;50.812;4.792;2024-02-21T08:02:14;23.30;;;11.80;;
27893;SDS011;15240;50.812;4.792;2024-02-21T08:04:40;26.10;;;11.30;;
27893;SDS011;15240;50.812;4.792;2024-02-21T08:07:06;22.33;;;11.13;;
27893;SDS011;15240;50.812;4.792;2024-02-21T08:09:32;21.23;;;10.43;;
27893;SDS011;15240;50.812;4.792;2024-02-21T08:11:58;22.80;;;10.90;;
27893;SDS011;15240;50.812;4.792;2024-02-21T08:14:24;24.37;;;10.57;;
27893;SDS011;15240;50.812;4.792;2024-02-21T08:16:50;16.80;;;9.17;;
27893;SDS011;15240;50.812;4.792;2024-02-21T08:19:18;18.90;;;9.83;;
27893;SDS011;15240;50.812;4.792;2024-02-21T08:21:44;17.80;;;8.90;;
27893;SDS011;15240;50.812;4.792;2024-02-21T08:24:12;15.70;;;8.93;;
27893;SDS011;15240;50.812;4.792;2024-02-21T08:26:41;19.23;;;9.07;;
27893;SDS011;15240;50.812;4.792;2024-02-21T08:29:09;19.73;;;9.00;;
27893;SDS011;15240;50.812;4.792;2024-02-21T08:31:36;15.83;;;8.03;;
27893;SDS011;15240;50.812;4.792;2024-02-21T08:34:02;19.07;;;8.80;;
27893;SDS011;15240;50.812;4.792;2024-02-21T08:36:35;17.13;;;8.90;;
27893;SDS011;15240;50.812;4.792;2024-02-21T08:39:02;20.63;;;8.77;;
27893;SDS011;15240;50.812;4.792;2024-02-21T08:41:32;18.80;;;8.07;;
27893;SDS011;15240;50.812;4.792;2024-02-21T08:43:58;20.10;;;8.37;;
27893;SDS011;15240;50.812;4.792;2024-02-21T08:46:24;16.73;;;8.13;;
27893;SDS011;15240;50.812;4.792;2024-02-21T08:48:51;14.93;;;7.97;;
27893;SDS011;15240;50.812;4.792;2024-02-21T08:51:17;17.33;;;7.80;;
27893;SDS011;15240;50.812;4.792;2024-02-21T08:53:44;16.30;;;7.90;;
27893;SDS011;15240;50.812;4.792;2024-02-21T08:56:10;15.53;;;8.00;;
27893;SDS011;15240;50.812;4.792;2024-02-21T08:58:36;15.73;;;7.67;;
27893;SDS011;15240;50.812;4.792;2024-02-21T09:01:08;15.67;;;8.17;;
27893;SDS011;15240;50.812;4.792;2024-02-21T09:03:38;15.70;;;6.93;;
27893;SDS011;15240;50.812;4.792;2024-02-21T09:06:05;16.13;;;8.07;;
27893;SDS011;15240;50.812;4.792;2024-02-21T09:08:31;13.47;;;6.80;;
27893;SDS011;15240;50.812;4.792;2024-02-21T09:10:59;12.97;;;7.53;;
27893;SDS011;15240;50.812;4.792;2024-02-21T09:13:26;14.70;;;8.63;;
27893;SDS011;15240;50.812;4.792;2024-02-21T09:15:52;15.93;;;8.90;;
27893;SDS011;15240;50.812;4.792;2024-02-21T09:18:18;17.00;;;8.00;;
27893;SDS011;15240;50.812;4.792;2024-02-21T09:20:44;17.20;;;7.30;;
27893;SDS011;15240;50.812;4.792;2024-02-21T09:23:11;14.27;;;7.33;;
27893;SDS011;15240;50.812;4.792;2024-02-21T09:25:37;14.97;;;7.10;;
27893;SDS011;15240;50.812;4.792;2024-02-21T09:28:03;13.67;;;7.30;;
27893;SDS011;15240;50.812;4.792;2024-02-21T09:30:31;15.03;;;7.33;;
27893;SDS011;15240;50.812;4.792;2024-02-21T09:32:57;20.20;;;7.87;;
27893;SDS011;15240;50.812;4.792;2024-02-21T09:35:27;14.00;;;7.00;;
27893;SDS011;15240;50.812;4.792;2024-02-21T09:37:56;14.23;;;7.83;;
27893;SDS011;15240;50.812;4.792;2024-02-21T09:40:22;13.97;;;6.90;;
27893;SDS011;15240;50.812;4.792;2024-02-21T09:42:48;14.10;;;7.00;;
27893;SDS011;15240;50.812;4.792;2024-02-21T09:45:21;14.37;;;7.60;;
27893;SDS011;15240;50.812;4.792;2024-02-21T09:50:14;12.27;;;7.20;;
27893;SDS011;15240;50.812;4.792;2024-02-21T09:52:40;17.03;;;8.20;;
27893;SDS011;15240;50.812;4.792;2024-02-21T09:55:07;13.67;;;6.73;;
27893;SDS011;15240;50.812;4.792;2024-02-21T09:57:37;15.17;;;7.10;;
27893;SDS011;15240;50.812;4.792;2024-02-21T10:00:04;15.80;;;7.97;;
27893;SDS011;15240;50.812;4.792;2024-02-21T10:02:34;12.30;;;6.93;;
27893;SDS011;15240;50.812;4.792;2024-02-21T10:05:00;15.10;;;7.30;;
27893;SDS011;15240;50.812;4.792;2024-02-21T10:07:27;13.40;;;6.70;;
27893;SDS011;15240;50.812;4.792;2024-02-21T10:10:02;13.33;;;6.90;;
27893;SDS011;15240;50.812;4.792;2024-02-21T10:12:28;18.27;;;6.77;;
27893;SDS011;15240;50.812;4.792;2024-02-21T10:15:04;16.43;;;6.77;;
27893;SDS011;15240;50.812;4.792;2024-02-21T10:17:34;12.67;;;6.20;;
27893;SDS011;15240;50.812;4.792;2024-02-21T10:20:07;12.97;;;6.23;;
27893;SDS011;15240;50.812;4.792;2024-02-21T10:22:34;11.40;;;6.03;;
27893;SDS011;15240;50.812;4.792;2024-02-21T10:25:13;12.50;;;6.13;;
27893;SDS011;15240;50.812;4.792;2024-02-21T10:27:39;12.77;;;6.00;;
27893;SDS011;15240;50.812;4.792;2024-02-21T10:30:07;11.03;;;5.80;;
27893;SDS011;15240;50.812;4.792;2024-02-21T10:32:33;13.03;;;5.57;;
27893;SDS011;15240;50.812;4.792;2024-02-21T10:35:00;16.17;;;5.80;;
27893;SDS011;15240;50.812;4.792;2024-02-21T10:37:28;13.53;;;5.03;;
27893;SDS011;15240;50.812;4.792;2024-02-21T10:39:54;14.63;;;5.37;;
27893;SDS011;15240;50.812;4.792;2024-02-21T10:42:21;13.23;;;5.83;;
27893;SDS011;15240;50.812;4.792;2024-02-21T10:44:49;13.33;;;5.63;;
27893;SDS011;15240;50.812;4.792;2024-02-21T10:47:19;10.63;;;5.30;;
27893;SDS011;15240;50.812;4.792;2024-02-21T10:49:49;11.27;;;5.03;;
27893;SDS011;15240;50.812;4.792;2024-02-21T10:54:53;10.17;;;5.50;;
27893;SDS011;15240;50.812;4.792;2024-02-21T10:57:22;10.93;;;5.30;;
27893;SDS011;15240;50.812;4.792;2024-02-21T10:59:48;10.07;;;4.63;;
27893;SDS011;15240;50.812;4.792;2024-02-21T11:02:15;13.67;;;5.40;;
27893;SDS011;15240;50.812;4.792;2024-02-21T11:04:41;13.27;;;4.97;;
27893;SDS011;15240;50.812;4.792;2024-02-21T11:07:08;10.90;;;5.00;;
27893;SDS011;15240;50.812;4.792;2024-02-21T11:09:34;10.97;;;4.70;;
27893;SDS011;15240;50.812;4.792;2024-02-21T11:12:02;12.07;;;4.90;;
27893;SDS011;15240;50.812;4.792;2024-02-21T11:14:28;12.57;;;5.17;;
27893;SDS011;15240;50.812;4.792;2024-02-21T11:16:57;12.53;;;4.97;;
27893;SDS011;15240;50.812;4.792;2024-02-21T11:19:28;13.23;;;5.87;;
27893;SDS011;15240;50.812;4.792;2024-02-21T11:21:55;10.80;;;4.60;;
27893;SDS011;15240;50.812;4.792;2024-02-21T11:24:25;13.67;;;4.73;;
27893;SDS011;15240;50.812;4.792;2024-02-21T11:26:53;9.30;;;4.40;;
27893;SDS011;15240;50.812;4.792;2024-02-21T11:29:25;11.10;;;4.40;;
27893;SDS011;15240;50.812;4.792;2024-02-21T11:31:51;8.77;;;4.20;;
27893;SDS011;15240;50.812;4.792;2024-02-21T11:34:18;11.03;;;4.00;;
27893;SDS011;15240;50.812;4.792;2024-02-21T11:36:48;12.23;;;4.73;;
27893;SDS011;15240;50.812;4.792;2024-02-21T11:39:21;9.63;;;4.00;;
27893;SDS011;15240;50.812;4.792;2024-02-21T11:44:45;9.30;;;4.00;;
27893;SDS011;15240;50.812;4.792;2024-02-21T11:47:11;8.57;;;4.20;;
27893;SDS011;15240;50.812;4.792;2024-02-21T11:49:38;7.97;;;4.10;;
27893;SDS011;15240;50.812;4.792;2024-02-21T11:52:05;11.10;;;4.30;;
27893;SDS011;15240;50.812;4.792;2024-02-21T11:54:32;8.40;;;4.20;;
27893;SDS011;15240;50.812;4.792;2024-02-21T11:56:58;9.57;;;4.17;;
27893;SDS011;15240;50.812;4.792;2024-02-21T11:59:25;8.63;;;3.80;;
27893;SDS011;15240;50.812;4.792;2024-02-21T12:01:52;9.67;;;3.63;;
27893;SDS011;15240;50.812;4.792;2024-02-21T12:04:21;7.40;;;3.70;;
27893;SDS011;15240;50.812;4.792;2024-02-21T12:06:52;8.13;;;3.77;;
27893;SDS011;15240;50.812;4.792;2024-02-21T12:09:19;11.03;;;4.13;;
27893;SDS011;15240;50.812;4.792;2024-02-21T12:11:45;12.23;;;4.33;;
27893;SDS011;15240;50.812;4.792;2024-02-21T12:14:22;8.03;;;4.17;;
27893;SDS011;15240;50.812;4.792;2024-02-21T12:16:50;7.27;;;4.20;;
27893;SDS011;15240;50.812;4.792;2024-02-21T12:19:16;8.93;;;4.03;;
27893;SDS011;15240;50.812;4.792;2024-02-21T12:21:42;10.60;;;4.77;;
27893;SDS011;15240;50.812;4.792;2024-02-21T12:24:20;6.90;;;3.77;;
27893;SDS011;15240;50.812;4.792;2024-02-21T12:26:47;11.57;;;4.40;;
27893;SDS011;15240;50.812;4.792;2024-02-21T12:29:13;9.83;;;4.17;;
27893;SDS011;15240;50.812;4.792;2024-02-21T12:31:39;6.97;;;3.87;;
27893;SDS011;15240;50.812;4.792;2024-02-21T12:34:06;10.80;;;4.40;;
27893;SDS011;15240;50.812;4.792;2024-02-21T12:36:35;10.57;;;4.20;;
27893;SDS011;15240;50.812;4.792;2024-02-21T12:39:02;9.40;;;4.23;;
27893;SDS011;15240;50.812;4.792;2024-02-21T12:41:29;10.23;;;4.17;;
27893;SDS011;15240;50.812;4.792;2024-02-21T12:43:57;11.20;;;4.60;;
27893;SDS011;15240;50.812;4.792;2024-02-21T12:46:23;9.27;;;4.30;;
27893;SDS011;15240;50.812;4.792;2024-02-21T12:48:49;8.70;;;4.37;;
27893;SDS011;15240;50.812;4.792;2024-02-21T12:51:15;11.70;;;4.73;;
27893;SDS011;15240;50.812;4.792;2024-02-21T12:53:46;8.80;;;4.43;;
27893;SDS011;15240;50.812;4.792;2024-02-21T12:56:12;12.30;;;5.03;;
27893;SDS011;15240;50.812;4.792;2024-02-21T12:58:38;11.53;;;4.87;;
27893;SDS011;15240;50.812;4.792;2024-02-21T13:01:04;9.83;;;4.73;;
27893;SDS011;15240;50.812;4.792;2024-02-21T13:03:30;11.17;;;4.77;;
27893;SDS011;15240;50.812;4.792;2024-02-21T13:05:56;9.37;;;4.63;;
27893;SDS011;15240;50.812;4.792;2024-02-21T13:08:24;11.37;;;5.27;;
27893;SDS011;15240;50.812;4.792;2024-02-21T13:10:50;8.13;;;4.73;;
27893;SDS011;15240;50.812;4.792;2024-02-21T13:13:16;12.33;;;4.67;;
27893;SDS011;15240;50.812;4.792;2024-02-21T13:15:42;9.17;;;4.77;;
27893;SDS011;15240;50.812;4.792;2024-02-21T13:18:08;10.27;;;4.80;;
27893;SDS011;15240;50.812;4.792;2024-02-21T13:20:35;8.67;;;4.50;;
27893;SDS011;15240;50.812;4.792;2024-02-21T13:23:02;12.27;;;4.60;;
27893;SDS011;15240;50.812;4.792;2024-02-21T13:25:28;8.03;;;4.20;;
27893;SDS011;15240;50.812;4.792;2024-02-21T13:27:55;10.83;;;4.67;;
27893;SDS011;15240;50.812;4.792;2024-02-21T13:30:21;12.33;;;4.60;;
27893;SDS011;15240;50.812;4.792;2024-02-21T13:32:47;10.20;;;4.90;;
27893;SDS011;15240;50.812;4.792;2024-02-21T13:35:14;10.33;;;5.27;;
27893;SDS011;15240;50.812;4.792;2024-02-21T13:37:40;10.83;;;4.67;;
27893;SDS011;15240;50.812;4.792;2024-02-21T13:40:07;10.33;;;4.83;;
27893;SDS011;15240;50.812;4.792;2024-02-21T13:42:36;9.40;;;4.77;;
27893;SDS011;15240;50.812;4.792;2024-02-21T13:45:03;8.90;;;4.60;;
27893;SDS011;15240;50.812;4.792;2024-02-21T13:47:30;8.97;;;4.60;;
27893;SDS011;15240;50.812;4.792;2024-02-21T13:49:57;10.50;;;4.97;;
27893;SDS011;15240;50.812;4.792;2024-02-21T13:52:23;12.90;;;5.27;;
27893;SDS011;15240;50.812;4.792;2024-02-21T13:54:51;11.33;;;4.63;;
27893;SDS011;15240;50.812;4.792;2024-02-21T13:57:17;9.70;;;4.63;;
27893;SDS011;15240;50.812;4.792;2024-02-21T13:59:44;11.53;;;4.83;;
27893;SDS011;15240;50.812;4.792;2024-02-21T14:02:10;10.93;;;5.60;;
27893;SDS011;15240;50.812;4.792;2024-02-21T14:04:36;9.47;;;4.97;;
27893;SDS011;15240;50.812;4.792;2024-02-21T14:07:02;9.87;;;4.90;;
27893;SDS011;15240;50.812;4.792;2024-02-21T14:09:28;11.03;;;5.30;;
27893;SDS011;15240;50.812;4.792;2024-02-21T14:11:54;10.37;;;5.00;;
27893;SDS011;15240;50.812;4.792;2024-02-21T14:14:20;11.90;;;5.50;;
27893;SDS011;15240;50.812;4.792;2024-02-21T14:16:46;9.40;;;4.87;;
27893;SDS011;15240;50.812;4.792;2024-02-21T14:19:13;11.37;;;5.07;;
27893;SDS011;15240;50.812;4.792;2024-02-21T14:21:39;10.80;;;5.60;;
27893;SDS011;15240;50.812;4.792;2024-02-21T14:24:05;12.33;;;5.40;;
27893;SDS011;15240;50.812;4.792;2024-02-21T14:26:32;9.43;;;5.23;;
27893;SDS011;15240;50.812;4.792;2024-02-21T14:28:58;13.30;;;5.40;;
27893;SDS011;15240;50.812;4.792;2024-02-21T14:31:25;11.53;;;5.50;;
27893;SDS011;15240;50.812;4.792;2024-02-21T14:33:51;10.10;;;5.23;;